Time;durP1;ratioP1;P1;durP2;ratioP2;P2;SDS_P1;SDS_P2;PMS_P1;PMS_P2;Temp;Humidity;BMP_temperature;BMP_pressure;BME280_temperature;BME280_humidity;BME280_pressure;Samples;Min_cycle;Max_cycle;Signal;HPM_P1;HPM_P2
2022/09/23 00:00:45;;;;;;;5.13;3.45;;;;;;;28.24;23.19;98599.81;5067169;28;20512;-77
2022/09/23 00:03:12;;;;;;;4.68;3.17;;;;;;;28.15;23.28;98602.53;5071221;28;20060;-77
2022/09/23 00:05:38;;;;;;;4.53;3.13;;;;;;;28.17;23.30;98604.91;5070265;28;20052;-78
2022/09/23 00:08:06;;;;;;;3.28;2.70;;;;;;;27.75;23.86;98599.22;5069248;28;20033;-78
2022/09/23 00:10:37;;;;;;;5.20;3.55;;;;;;;27.58;24.12;98597.72;5071368;28;20029;-78
2022/09/23 00:13:04;;;;;;;4.10;2.80;;;;;;;27.65;24.28;98602.38;5070973;28;20444;-78
2022/09/23 00:15:36;;;;;;;3.40;2.58;;;;;;;27.94;23.78;98595.44;5073152;28;20297;-78
2022/09/23 00:18:02;;;;;;;4.78;3.22;;;;;;;28.22;23.34;98587.38;5068198;28;20425;-78
2022/09/23 00:20:28;;;;;;;4.60;2.90;;;;;;;28.05;23.37;98592.34;5066982;28;20056;-78
2022/09/23 00:22:55;;;;;;;6.95;2.80;;;;;;;28.16;23.28;98592.03;5062939;28;20036;-78
2022/09/23 00:25:21;;;;;;;4.15;3.13;;;;;;;28.08;23.42;98591.44;5066584;28;20104;-78
2022/09/23 00:27:47;;;;;;;4.55;3.00;;;;;;;28.21;23.29;98585.81;5071716;28;20068;-78
2022/09/23 00:30:13;;;;;;;4.57;3.15;;;;;;;28.31;23.39;98577.00;5066380;28;20029;-78
2022/09/23 00:32:39;;;;;;;4.18;3.60;;;;;;;28.08;23.58;98582.19;5065099;28;20119;-78
2022/09/23 00:35:07;;;;;;;3.38;2.80;;;;;;;27.81;23.60;98577.72;5061993;28;20036;-78
2022/09/23 00:37:33;;;;;;;3.97;3.30;;;;;;;28.08;23.51;98569.66;5070025;28;20032;-78
2022/09/23 00:40:00;;;;;;;3.72;3.08;;;;;;;28.38;22.91;98573.19;5070443;28;20123;-78
2022/09/23 00:42:26;;;;;;;4.57;2.75;;;;;;;28.54;22.88;98568.19;5066353;28;20029;-78
2022/09/23 00:44:54;;;;;;;3.40;3.10;;;;;;;28.70;22.91;98562.47;5066183;28;20033;-78
2022/09/23 00:47:34;;;;;;;6.20;3.33;;;;;;;28.55;23.11;98577.47;5067705;28;20040;-78
2022/09/23 00:50:09;;;;;;;4.82;3.58;;;;;;;28.38;23.19;98565.47;5068254;28;20036;-78
2022/09/23 00:52:36;;;;;;;3.05;2.60;;;;;;;28.08;23.59;98571.69;5061157;28;20098;-78
2022/09/23 00:55:11;;;;;;;5.82;4.10;;;;;;;27.86;23.92;98568.69;5067233;28;20497;-78
2022/09/23 00:57:39;;;;;;;5.60;3.45;;;;;;;27.87;23.90;98570.25;5058163;28;20028;-78
2022/09/23 01:00:06;;;;;;;4.78;3.80;;;;;;;28.05;23.62;98569.78;5061302;28;20047;-78
2022/09/23 01:02:33;;;;;;;6.22;3.70;;;;;;;28.10;23.72;98571.25;5066970;28;20500;-78
2022/09/23 01:05:02;;;;;;;6.68;3.53;;;;;;;28.21;23.49;98572.50;5062471;28;20045;-78
2022/09/23 01:07:29;;;;;;;4.35;3.20;;;;;;;28.18;23.58;98569.78;5063411;28;20082;-78
2022/09/23 01:09:57;;;;;;;6.10;3.63;;;;;;;28.10;23.77;98568.41;5059683;28;20044;-78
2022/09/23 01:12:35;;;;;;;5.60;3.53;;;;;;;27.89;23.92;98567.00;5057837;28;20336;-78
2022/09/23 01:15:22;;;;;;;5.50;3.40;;;;;;;27.82;24.12;98567.97;5057668;28;20076;-78
2022/09/23 01:18:07;;;;;;;4.63;3.63;;;;;;;28.08;23.60;98572.47;5062947;28;20046;-78
2022/09/23 01:20:53;;;;;;;4.97;3.45;;;;;;;28.30;23.54;98563.34;5069069;28;20106;-78
2022/09/23 01:23:25;;;;;;;4.13;3.28;;;;;;;28.41;23.51;98561.75;5066059;28;20028;-78
2022/09/23 01:26:14;;;;;;;4.53;3.50;;;;;;;28.49;23.16;98551.03;5064429;28;20051;-78
2022/09/23 01:29:32;;;;;;;7.22;3.97;;;;;;;28.67;23.17;98557.72;5068731;28;20108;-77
2022/09/23 01:32:05;;;;;;;4.57;3.63;;;;;;;28.81;22.74;98559.28;5068784;28;20040;-77
2022/09/23 01:34:53;;;;;;;5.93;3.88;;;;;;;28.52;23.38;98553.72;5063190;28;20040;-78
2022/09/23 01:37:31;;;;;;;7.07;3.90;;;;;;;28.56;22.99;98554.44;5070521;28;20393;-78
2022/09/23 01:40:11;;;;;;;3.47;2.85;;;;;;;28.58;23.18;98553.97;5066684;28;20402;-78
2022/09/23 01:43:01;;;;;;;3.70;3.28;;;;;;;28.74;22.98;98551.81;5070707;28;20089;-78
2022/09/23 01:45:43;;;;;;;4.82;3.05;;;;;;;28.85;22.74;98548.63;5065652;28;20039;-78
2022/09/23 01:48:32;;;;;;;4.90;3.70;;;;;;;28.77;22.74;98552.16;5070799;28;20036;-78
2022/09/23 01:51:07;;;;;;;5.20;3.42;;;;;;;28.43;23.26;98550.78;5063832;28;20036;-78
2022/09/23 01:53:48;;;;;;;4.85;3.20;;;;;;;28.55;23.11;98552.03;5062821;28;20046;-78
2022/09/23 01:56:29;;;;;;;5.35;3.53;;;;;;;28.40;23.14;98546.03;5068777;28;20024;-78
2022/09/23 01:59:01;;;;;;;;;;;;;;;28.32;23.25;98550.34;5064743;28;20087;-78
2022/09/23 02:01:51;;;;;;;4.65;3.58;;;;;;;28.28;23.51;98546.88;5069662;28;19916;-78
2022/09/23 02:04:38;;;;;;;4.95;3.47;;;;;;;28.18;23.46;98545.16;5064657;28;20503;-78
2022/09/23 02:07:19;;;;;;;5.03;3.83;;;;;;;28.36;23.45;98544.59;5068742;28;20589;-78
2022/09/23 02:09:52;;;;;;;5.00;4.00;;;;;;;28.45;23.29;98553.97;5065255;28;20406;-78
2022/09/23 02:12:23;;;;;;;6.40;3.30;;;;;;;28.44;23.06;98548.78;5065269;28;20028;-78
2022/09/23 02:15:12;;;;;;;6.75;4.22;;;;;;;27.98;23.82;98556.59;5070188;28;20036;-78
2022/09/23 02:17:51;;;;;;;4.18;3.38;;;;;;;27.93;23.85;98551.53;5071425;28;20032;-78
2022/09/23 02:20:27;;;;;;;6.90;4.32;;;;;;;27.64;24.08;98550.78;5068614;28;20032;-78
2022/09/23 02:23:13;;;;;;;5.60;3.97;;;;;;;27.52;24.49;98550.75;5062589;28;20091;-78
2022/09/23 02:26:06;;;;;;;7.20;4.88;;;;;;;27.26;24.95;98547.78;5060000;28;20061;-77
2022/09/23 02:28:56;;;;;;;6.18;4.32;;;;;;;27.38;24.70;98541.44;5066937;28;20178;-78
2022/09/23 02:31:26;;;;;;;6.13;3.85;;;;;;;27.45;24.48;98537.63;5069720;28;20493;-78
2022/09/23 02:34:01;;;;;;;5.55;4.13;;;;;;;27.91;24.28;98548.34;5063730;28;20535;-78
2022/09/23 02:36:36;;;;;;;5.05;3.75;;;;;;;27.92;23.90;98540.69;5056848;28;20045;-78
2022/09/23 02:39:09;;;;;;;7.28;4.03;;;;;;;28.06;23.78;98549.56;5066448;28;20029;-78
2022/09/23 02:41:56;;;;;;;6.28;4.53;;;;;;;28.04;23.80;98552.03;5061050;28;20037;-78
2022/09/23 02:44:23;;;;;;;5.97;4.30;;;;;;;27.99;23.56;98544.13;5062947;28;20041;-78
2022/09/23 02:46:51;;;;;;;5.22;3.97;;;;;;;28.04;23.66;98542.78;5068440;28;20763;-78
2022/09/23 02:49:32;;;;;;;5.30;3.85;;;;;;;27.87;23.81;98546.88;5065399;28;20040;-78
2022/09/23 02:52:04;;;;;;;6.38;4.82;;;;;;;27.68;24.10;98545.06;5064245;28;20037;-78
2022/09/23 02:54:33;;;;;;;4.50;3.97;;;;;;;27.35;24.50;98536.66;5073399;28;20132;-78
2022/09/23 02:57:03;;;;;;;6.88;4.28;;;;;;;27.34;24.68;98543.56;5065426;28;20043;-78
2022/09/23 02:59:30;;;;;;;6.72;3.88;;;;;;;27.35;24.66;98544.34;5065448;28;20060;-78
2022/09/23 03:02:38;;;;;;;5.28;4.22;;;;;;;27.51;24.48;98546.34;5068874;28;20385;-78
2022/09/23 03:05:22;;;;;;;5.68;4.32;;;;;;;27.88;23.93;98546.44;5065399;28;20512;-78
2022/09/23 03:08:28;;;;;;;6.25;4.00;;;;;;;28.02;23.55;98543.22;5072885;28;20032;-78
2022/09/23 03:11:05;;;;;;;5.60;4.65;;;;;;;27.96;23.65;98544.97;5065729;28;20028;-78
2022/09/23 03:14:00;;;;;;;7.43;4.45;;;;;;;28.06;23.59;98543.09;5079923;28;20030;-78
2022/09/23 03:16:42;;;;;;;6.13;3.72;;;;;;;28.03;23.81;98547.63;5067641;28;20498;-78
2022/09/23 03:19:33;;;;;;;6.65;4.75;;;;;;;28.25;23.39;98544.94;5068059;28;20058;-78
2022/09/23 03:22:07;;;;;;;;;;;;;;;27.92;23.73;98535.84;5066911;28;20059;-78
2022/09/23 03:24:36;;;;;;;5.25;3.80;;;;;;;28.04;23.65;98539.94;5060591;28;19944;-78
2022/09/23 03:27:15;;;;;;;6.82;4.20;;;;;;;28.01;23.70;98540.84;5066063;28;20104;-78
2022/09/23 03:29:46;;;;;;;4.93;4.03;;;;;;;28.19;23.63;98541.09;5064343;28;20032;-78
2022/09/23 03:32:15;;;;;;;4.70;3.50;;;;;;;28.40;23.32;98536.81;5066405;28;20115;-78
2022/09/23 03:34:43;;;;;;;4.97;3.63;;;;;;;28.52;23.15;98539.59;5063192;28;20040;-78
2022/09/23 03:37:22;;;;;;;5.82;3.60;;;;;;;28.59;23.14;98538.63;5070317;28;20039;-78
2022/09/23 03:39:54;;;;;;;4.15;3.42;;;;;;;28.61;22.85;98536.13;5065734;28;20497;-78
2022/09/23 03:42:28;;;;;;;4.85;3.88;;;;;;;28.41;23.25;98536.34;5062298;28;20033;-78
2022/09/23 03:44:56;;;;;;;4.80;3.90;;;;;;;28.25;23.20;98536.47;5062545;28;20036;-78
2022/09/23 03:47:26;;;;;;;5.50;3.78;;;;;;;28.16;23.35;98529.91;5062392;28;20085;-78
2022/09/23 03:49:53;;;;;;;5.18;4.00;;;;;;;28.07;23.55;98527.75;5062982;28;20091;-78
2022/09/23 03:52:22;;;;;;;6.68;4.45;;;;;;;27.99;23.66;98524.38;5065877;28;20059;-78
2022/09/23 03:54:51;;;;;;;7.50;4.75;;;;;;;28.00;23.66;98525.16;5072266;28;20024;-78
2022/09/23 03:57:20;;;;;;;6.85;4.10;;;;;;;28.00;23.38;98528.78;5061433;28;20053;-78
2022/09/23 03:59:50;;;;;;;4.28;3.58;;;;;;;27.96;23.76;98530.06;5064099;28;20024;-78
2022/09/23 04:02:17;;;;;;;6.63;3.88;;;;;;;27.99;23.57;98527.19;5076093;28;20035;-78
2022/09/23 04:04:44;;;;;;;6.28;3.80;;;;;;;27.91;23.69;98528.59;5070799;28;20537;-78
2022/09/23 04:07:11;;;;;;;6.47;4.50;;;;;;;27.83;23.93;98526.44;5061700;28;20034;-78
2022/09/23 04:09:37;;;;;;;6.80;3.70;;;;;;;28.05;23.88;98533.84;5060017;28;20090;-78
2022/09/23 04:12:04;;;;;;;8.45;4.78;;;;;;;27.82;23.94;98528.47;5067062;28;20091;-78
2022/09/23 04:14:30;;;;;;;5.32;3.75;;;;;;;28.10;23.88;98526.06;5063146;28;20112;-78
2022/09/23 04:16:57;;;;;;;5.75;4.10;;;;;;;28.21;23.67;98532.97;5066014;28;20029;-78
2022/09/23 04:19:23;;;;;;;7.22;4.22;;;;;;;28.28;23.41;98531.94;5064620;28;20429;-78
2022/09/23 04:21:49;;;;;;;8.57;4.28;;;;;;;28.20;23.44;98533.41;5057077;28;20523;-78
2022/09/23 04:24:16;;;;;;;5.43;4.55;;;;;;;27.50;24.68;98522.19;5061903;28;22283;-79
2022/09/23 04:26:43;;;;;;;6.03;4.75;;;;;;;27.72;24.08;98528.81;5063257;28;20031;-78
2022/09/23 04:29:10;;;;;;;5.63;4.38;;;;;;;28.02;24.03;98531.94;5062092;28;20036;-79
2022/09/23 04:31:36;;;;;;;6.18;4.15;;;;;;;28.45;23.48;98537.00;5058728;28;20119;-78
2022/09/23 04:34:02;;;;;;;7.05;4.43;;;;;;;28.74;23.04;98534.06;5060708;28;20040;-79
2022/09/23 04:36:29;;;;;;;7.38;4.50;;;;;;;28.84;22.91;98538.59;5063780;28;20021;-78
2022/09/23 04:38:56;;;;;;;5.13;4.13;;;;;;;28.93;22.82;98523.75;5059714;28;20047;-78
2022/09/23 04:41:22;;;;;;;6.32;4.07;;;;;;;28.95;22.84;98526.91;5059556;28;20493;-79
2022/09/23 04:43:48;;;;;;;4.75;3.70;;;;;;;29.10;22.60;98537.25;5059191;28;20064;-79
2022/09/23 04:46:15;;;;;;;7.20;4.50;;;;;;;29.17;22.64;98537.00;5059693;28;20029;-79
2022/09/23 04:48:42;;;;;;;6.35;4.18;;;;;;;28.93;22.65;98541.50;5060566;28;20056;-79
2022/09/23 04:51:14;;;;;;;5.35;4.10;;;;;;;28.54;23.15;98533.53;5055560;28;20048;-79
2022/09/23 04:53:42;;;;;;;5.50;3.60;;;;;;;28.65;23.30;98536.81;5048079;28;20121;-79
2022/09/23 04:56:12;;;;;;;9.23;4.07;;;;;;;28.81;23.24;98538.69;5064226;28;20021;-79
2022/09/23 04:58:39;;;;;;;5.93;4.25;;;;;;;28.56;23.54;98537.47;5066135;28;20035;-79
2022/09/23 05:01:13;;;;;;;5.10;3.80;;;;;;;28.32;23.67;98532.63;5072487;28;20432;-79
2022/09/23 05:03:40;;;;;;;5.28;4.05;;;;;;;28.54;23.66;98539.16;5072950;28;20550;-79
2022/09/23 05:06:06;;;;;;;6.53;4.72;;;;;;;28.55;23.81;98540.72;5072693;28;20028;-79
2022/09/23 05:08:33;;;;;;;5.88;4.50;;;;;;;28.81;23.30;98542.31;5072930;28;20028;-79
2022/09/23 05:11:03;;;;;;;5.60;3.92;;;;;;;29.06;22.95;98539.41;5072818;28;20108;-79
2022/09/23 05:13:31;;;;;;;6.15;4.50;;;;;;;29.05;22.79;98551.19;5071593;28;20079;-79
2022/09/23 05:16:06;;;;;;;8.00;5.95;;;;;;;28.82;23.42;98543.91;5058189;28;20047;-79
2022/09/23 05:18:35;;;;;;;6.00;4.75;;;;;;;28.50;23.66;98546.94;5056706;28;20037;-79
2022/09/23 05:21:02;;;;;;;5.28;4.13;;;;;;;28.78;23.79;98554.53;5056298;28;20036;-79
2022/09/23 05:23:29;;;;;;;8.85;5.75;;;;;;;28.98;23.17;98546.56;5056626;28;20528;-79
2022/09/23 05:26:01;;;;;;;7.75;6.07;;;;;;;28.47;24.08;98556.34;5055136;28;20041;-79
2022/09/23 05:28:30;;;;;;;9.73;6.40;;;;;;;27.83;24.79;98558.28;5061746;28;20028;-79
2022/09/23 05:31:18;;;;;;;8.27;6.13;;;;;;;27.72;25.04;98562.66;5076613;28;20036;-79
2022/09/23 05:33:47;;;;;;;11.43;8.77;;;;;;;27.51;24.99;98564.06;5056996;28;20467;-79
2022/09/23 05:36:16;;;;;;;11.70;8.20;;;;;;;27.49;25.04;98555.28;5055295;28;20099;-79
2022/09/23 05:38:43;;;;;;;10.60;8.05;;;;;;;27.71;25.07;98567.50;5056548;28;20029;-79
2022/09/23 05:41:12;;;;;;;8.23;6.35;;;;;;;27.18;26.12;98565.34;5056140;28;20044;-79
2022/09/23 05:43:39;;;;;;;12.38;9.32;;;;;;;27.32;25.43;98568.59;5069462;28;20029;-79
2022/09/23 05:46:05;;;;;;;11.13;9.27;;;;;;;27.10;25.64;98564.75;5076108;28;20032;-79
2022/09/23 05:48:33;;;;;;;16.85;11.35;;;;;;;27.11;25.71;98565.53;5071984;28;20084;-79
2022/09/23 05:51:00;;;;;;;16.02;11.15;;;;;;;27.10;25.57;98567.56;5073050;28;20113;-79
2022/09/23 05:53:28;;;;;;;12.00;8.75;;;;;;;27.21;25.50;98564.47;5075388;28;20584;-79
2022/09/23 05:55:58;;;;;;;16.70;10.90;;;;;;;27.10;25.63;98561.13;5075117;28;20028;-78
2022/09/23 05:58:24;;;;;;;12.73;8.90;;;;;;;26.81;26.18;98568.75;5075272;28;20041;-79
2022/09/23 06:00:51;;;;;;;14.65;10.25;;;;;;;27.00;25.57;98559.41;5074925;28;20039;-79
2022/09/23 06:03:19;;;;;;;14.45;9.38;;;;;;;27.18;25.59;98566.16;5068320;28;20045;-79
2022/09/23 06:05:47;;;;;;;14.00;10.98;;;;;;;26.97;25.59;98568.75;5056340;28;20028;-78
2022/09/23 06:08:14;;;;;;;15.05;9.43;;;;;;;27.18;25.58;98574.63;5055467;28;20036;-79
2022/09/23 06:10:42;;;;;;;15.23;10.18;;;;;;;26.97;25.68;98572.34;5055976;28;20047;-79
2022/09/23 06:13:09;;;;;;;12.32;9.02;;;;;;;27.15;25.68;98566.25;5055611;28;20037;-79
2022/09/23 06:15:36;;;;;;;14.38;9.23;;;;;;;27.34;25.61;98571.75;5066293;28;20036;-79
2022/09/23 06:18:03;;;;;;;14.38;10.43;;;;;;;27.60;25.22;98572.69;5075473;28;20115;-79
2022/09/23 06:20:29;;;;;;;14.80;9.15;;;;;;;28.17;24.55;98576.69;5074250;28;20573;-79
2022/09/23 06:23:05;;;;;;;13.48;10.23;;;;;;;28.31;24.52;98576.25;5067525;28;20037;-79
2022/09/23 06:25:32;;;;;;;15.02;10.35;;;;;;;27.24;25.27;98577.66;5055462;28;20033;-79
2022/09/23 06:27:59;;;;;;;15.57;8.48;;;;;;;27.82;24.71;98582.09;5071734;28;20366;-78
2022/09/23 06:30:26;;;;;;;12.27;8.32;;;;;;;27.83;24.90;98585.72;5060292;28;20043;-79
2022/09/23 06:32:55;;;;;;;15.57;9.55;;;;;;;27.43;25.35;98582.41;5075301;28;20033;-79
2022/09/23 06:35:25;;;;;;;11.77;8.82;;;;;;;27.40;25.24;98578.44;5075361;28;20041;-78
2022/09/23 06:37:52;;;;;;;10.95;8.15;;;;;;;27.73;25.07;98581.97;5074677;28;20036;-79
2022/09/23 06:40:19;;;;;;;14.60;8.95;;;;;;;28.17;24.72;98577.44;5064720;28;20029;-78
2022/09/23 06:42:45;;;;;;;14.82;9.38;;;;;;;28.16;24.50;98583.56;5068705;28;20563;-79
2022/09/23 06:45:13;;;;;;;12.60;9.05;;;;;;;28.44;24.46;98580.66;5073476;28;20036;-79
2022/09/23 06:47:40;;;;;;;14.65;8.20;;;;;;;28.54;24.20;98578.72;5075210;28;20025;-79
2022/09/23 06:50:07;;;;;;;11.65;9.02;;;;;;;28.55;23.99;98578.25;5075079;28;20036;-79
2022/09/23 06:52:34;;;;;;;11.85;7.78;;;;;;;28.74;24.17;98585.75;5074265;28;20059;-79
2022/09/23 06:55:00;;;;;;;16.35;8.43;;;;;;;28.95;23.60;98589.09;5074944;28;20085;-79
2022/09/23 06:57:31;;;;;;;11.77;8.18;;;;;;;29.06;23.80;98598.00;5062796;28;20497;-79
2022/09/23 06:59:58;;;;;;;11.18;8.35;;;;;;;29.18;23.67;98592.34;5058888;28;20036;-78
2022/09/23 07:02:24;;;;;;;20.70;10.77;;;;;;;28.75;23.47;98595.78;5075097;28;20081;-79
2022/09/23 07:04:51;;;;;;;11.00;7.88;;;;;;;28.72;24.09;98598.75;5074820;28;20029;-79
2022/09/23 07:07:17;;;;;;;14.02;9.23;;;;;;;28.95;23.98;98594.75;5074570;28;20480;-79
2022/09/23 07:09:44;;;;;;;14.90;10.07;;;;;;;28.94;23.93;98599.59;5073497;28;20482;-79
2022/09/23 07:12:11;;;;;;;11.52;8.55;;;;;;;27.84;25.08;98599.38;5074406;28;20043;-79
2022/09/23 07:14:37;;;;;;;10.75;8.25;;;;;;;27.49;25.90;98589.13;5061149;28;20041;-79
2022/09/23 07:17:03;;;;;;;10.93;8.27;;;;;;;27.30;26.08;98595.66;5054704;28;20108;-79
2022/09/23 07:19:29;;;;;;;13.82;8.82;;;;;;;27.94;25.39;98597.47;5054543;28;20029;-79
2022/09/23 07:21:56;;;;;;;12.40;9.52;;;;;;;28.25;25.19;98598.59;5054078;28;20033;-79
2022/09/23 07:24:22;;;;;;;11.98;8.20;;;;;;;28.66;24.55;98604.16;5057822;28;20104;-79
2022/09/23 07:26:48;;;;;;;12.07;8.30;;;;;;;28.59;24.70;98604.38;5073897;28;20029;-79
2022/09/23 07:29:14;;;;;;;13.68;9.00;;;;;;;28.85;23.92;98604.38;5073587;28;20104;-79
2022/09/23 07:31:42;;;;;;;14.27;9.80;;;;;;;28.68;24.33;98604.50;5060221;28;20033;-79
2022/09/23 07:34:10;;;;;;;11.80;8.57;;;;;;;29.39;23.83;98607.78;5054324;28;20510;-79
2022/09/23 07:43:40;;;;;;;9.85;8.13;;;;;;;29.24;23.17;98598.22;5053413;28;20094;-79
2022/09/23 07:46:10;;;;;;;11.43;8.82;;;;;;;28.62;23.96;98603.50;5065541;28;20037;-79
2022/09/23 07:48:57;;;;;;;13.48;9.18;;;;;;;28.28;24.54;98609.00;5060633;28;20086;-79
2022/09/23 07:51:26;;;;;;;12.65;8.45;;;;;;;28.87;24.12;98613.97;5011580;28;20046;-79
2022/09/23 07:53:54;;;;;;;9.23;7.50;;;;;;;29.26;23.41;98613.50;5014414;28;20125;-79
2022/09/23 07:56:24;;;;;;;11.32;7.97;;;;;;;29.10;23.83;98619.25;5028113;28;20077;-79
2022/09/23 07:58:59;;;;;;;10.15;7.68;;;;;;;29.66;23.10;98608.03;5031157;28;20060;-79
2022/09/23 08:01:28;;;;;;;13.55;9.50;;;;;;;29.59;22.65;98611.13;5031379;28;20049;-79
2022/09/23 08:03:59;;;;;;;9.85;7.75;;;;;;;29.87;22.51;98610.09;5030865;28;20475;-79
2022/09/23 08:06:25;;;;;;;7.95;6.00;;;;;;;29.78;22.87;98606.44;5029995;28;20587;-79
2022/09/23 08:08:52;;;;;;;9.73;8.00;;;;;;;29.62;22.72;98606.56;5015200;28;20550;-79
2022/09/23 08:11:18;;;;;;;8.90;6.63;;;;;;;29.59;22.66;98604.66;5025318;28;20045;-79
2022/09/23 08:13:45;;;;;;;8.55;6.00;;;;;;;29.77;22.63;98599.16;5017209;28;21166;-79
2022/09/23 08:16:11;;;;;;;9.10;7.15;;;;;;;30.06;22.70;98600.47;5068006;28;20509;-79
2022/09/23 08:18:37;;;;;;;10.85;7.40;;;;;;;30.00;22.59;98593.03;5057635;28;20043;-79
2022/09/23 08:21:04;;;;;;;7.93;6.28;;;;;;;29.54;22.40;98594.72;5072401;28;20115;-79
2022/09/23 08:23:32;;;;;;;10.25;7.35;;;;;;;29.65;22.26;98595.13;5073197;28;20029;-79
2022/09/23 08:26:01;;;;;;;9.55;7.40;;;;;;;29.35;22.92;98601.47;5073513;28;20029;-79
2022/09/23 08:28:28;;;;;;;8.75;6.55;;;;;;;29.12;23.08;98605.47;5072990;28;20474;-79
2022/09/23 08:30:55;;;;;;;9.00;7.30;;;;;;;28.42;23.86;98602.09;5072923;28;20052;-79
2022/09/23 08:33:21;;;;;;;7.80;5.97;;;;;;;27.90;25.06;98594.78;5073340;28;20120;-79
2022/09/23 08:35:48;;;;;;;7.85;6.18;;;;;;;28.18;25.63;98598.00;5072860;28;20025;-79
2022/09/23 08:38:14;;;;;;;7.75;6.55;;;;;;;28.74;24.95;98587.78;5070880;28;20017;-80
2022/09/23 08:40:43;;;;;;;9.98;7.60;;;;;;;29.27;23.34;98581.13;5052746;28;20116;-79
2022/09/23 08:43:27;;;;;;;8.68;6.78;;;;;;;28.95;24.84;98584.22;5053054;28;20025;-79
2022/09/23 08:45:54;;;;;;;7.25;6.20;;;;;;;29.72;23.13;98571.41;5052957;28;20037;-79
2022/09/23 08:48:42;;;;;;;9.10;6.90;;;;;;;29.79;22.70;98569.16;5035006;28;20033;-79
2022/09/23 08:51:13;;;;;;;10.63;6.57;;;;;;;29.61;23.21;98563.34;5066103;28;20040;-79
2022/09/23 08:53:41;;;;;;;6.50;4.97;;;;;;;29.96;22.89;98567.69;5064015;28;20078;-79
2022/09/23 08:56:16;;;;;;;8.30;6.28;;;;;;;30.54;22.17;98572.72;5072219;28;20107;-79
2022/09/23 08:59:01;;;;;;;5.57;4.82;;;;;;;31.10;22.19;98566.75;5071817;28;20056;-79
2022/09/23 09:01:30;;;;;;;5.85;4.35;;;;;;;31.60;21.67;98568.25;5059054;28;20056;-79
2022/09/23 09:03:59;;;;;;;5.65;4.18;;;;;;;31.77;21.21;98569.47;5072709;28;20028;-79
2022/09/23 09:06:32;;;;;;;6.85;5.82;;;;;;;30.92;22.29;98570.38;5091279;28;20032;-79
2022/09/23 09:09:02;;;;;;;6.03;4.65;;;;;;;30.36;22.09;98570.63;5076931;28;20029;-79
2022/09/23 09:11:42;;;;;;;8.13;5.50;;;;;;;29.90;22.87;98566.69;5072496;28;20069;-80
2022/09/23 09:14:33;;;;;;;11.15;6.75;;;;;;;29.41;22.02;98574.97;5054698;28;20114;-79
2022/09/23 09:17:04;;;;;;;6.20;4.30;;;;;;;29.58;23.57;98574.78;5050282;28;20036;-79
2022/09/23 09:19:50;;;;;;;6.15;4.50;;;;;;;29.97;21.99;98560.75;5072885;28;20025;-79
2022/09/23 09:22:41;;;;;;;5.00;3.83;;;;;;;30.25;22.80;98566.56;5072688;28;20067;-79
2022/09/23 09:25:36;;;;;;;7.30;4.57;;;;;;;30.39;21.70;98558.34;5072883;28;20040;-79
2022/09/23 09:28:14;;;;;;;5.50;3.72;;;;;;;30.99;22.08;98552.25;5071917;28;20161;-79
2022/09/23 09:30:41;;;;;;;3.78;3.40;;;;;;;30.79;22.61;98552.63;5065737;28;20039;-79
2022/09/23 09:33:14;;;;;;;6.57;4.90;;;;;;;29.38;24.16;98556.06;5069223;28;20052;-79
2022/09/23 09:35:49;;;;;;;4.80;4.20;;;;;;;29.17;23.61;98551.13;5069321;28;20037;-79
2022/09/23 09:38:16;;;;;;;5.28;4.15;;;;;;;29.25;22.81;98557.38;5069211;28;20060;-79
2022/09/23 09:40:46;;;;;;;4.80;4.28;;;;;;;29.13;23.34;98552.50;5069134;28;20095;-78
2022/09/23 09:43:23;;;;;;;5.43;4.22;;;;;;;29.19;22.57;98550.72;5069286;28;20032;-79
2022/09/23 09:46:09;;;;;;;4.88;3.53;;;;;;;30.38;22.40;98548.28;5052585;28;20037;-78
2022/09/23 09:48:52;;;;;;;4.20;3.75;;;;;;;30.88;21.77;98547.00;5069363;28;20510;-80
2022/09/23 09:51:23;;;;;;;5.13;3.65;;;;;;;31.05;21.20;98536.97;5068213;28;20044;-79
2022/09/23 09:53:54;;;;;;;4.15;2.72;;;;;;;30.28;21.82;98538.13;5068576;28;20031;-79
2022/09/23 09:56:30;;;;;;;5.63;3.75;;;;;;;30.22;23.55;98530.69;5065314;28;20033;-79
2022/09/23 09:59:10;;;;;;;3.65;2.90;;;;;;;29.56;25.02;98527.13;5064187;28;20041;-78
2022/09/23 10:01:36;;;;;;;4.15;2.90;;;;;;;30.43;23.14;98527.81;5069163;28;20390;-79
2022/09/23 10:04:17;;;;;;;4.70;3.10;;;;;;;30.06;23.33;98526.81;5068806;28;20064;-79
2022/09/23 10:07:02;;;;;;;3.03;2.72;;;;;;;30.45;21.14;98528.16;5072249;28;20032;-79
2022/09/23 10:09:36;;;;;;;2.95;2.55;;;;;;;30.16;22.84;98527.66;5073645;28;20031;-79
2022/09/23 10:12:14;;;;;;;3.40;3.10;;;;;;;29.97;22.88;98526.78;5072559;28;20571;-79
2022/09/23 10:14:41;;;;;;;3.40;3.03;;;;;;;30.23;21.91;98532.25;5064852;28;20063;-80
2022/09/23 10:17:14;;;;;;;5.72;3.35;;;;;;;30.16;23.32;98524.03;5073205;28;20037;-79
2022/09/23 10:19:47;;;;;;;2.95;2.67;;;;;;;30.18;21.65;98516.66;5072439;28;20401;-79
2022/09/23 10:22:25;;;;;;;4.38;2.70;;;;;;;31.04;21.83;98511.91;5072125;28;20094;-80
2022/09/23 10:24:53;;;;;;;3.00;2.60;;;;;;;31.16;22.04;98516.63;5071549;28;20085;-79
2022/09/23 10:27:30;;;;;;;4.72;3.28;;;;;;;29.89;21.79;98504.88;5073271;28;20036;-79
2022/09/23 10:29:59;;;;;;;4.13;2.92;;;;;;;29.83;23.21;98516.00;5072937;28;20036;-79
2022/09/23 10:32:38;;;;;;;3.85;3.20;;;;;;;29.45;24.28;98506.94;5072424;28;20102;-79
2022/09/23 10:35:13;;;;;;;2.83;2.47;;;;;;;30.21;23.22;98507.22;5066588;28;20060;-79
2022/09/23 10:37:57;;;;;;;3.10;2.65;;;;;;;30.27;21.45;98507.44;5069373;28;20028;-79
2022/09/23 10:46:44;;;;;;;4.25;3.50;;;;;;;28.60;23.49;98506.28;5073559;28;19981;-79
2022/09/23 10:49:50;;;;;;;5.80;3.35;;;;;;;27.56;23.96;98520.41;5071257;28;20025;-79
2022/09/23 10:52:30;;;;;;;3.90;2.72;;;;;;;28.21;24.33;98515.22;5033184;28;20082;-79
2022/09/23 10:55:14;;;;;;;3.90;2.95;;;;;;;28.54;24.13;98511.69;5044169;28;20139;-78
2022/09/23 10:57:46;;;;;;;4.30;2.88;;;;;;;27.98;24.69;98522.72;5071888;28;20052;-78
2022/09/23 11:00:21;;;;;;;3.35;2.10;;;;;;;29.06;23.02;98516.78;5072006;28;20041;-78
2022/09/23 11:03:37;;;;;;;3.25;2.05;;;;;;;29.10;22.60;98517.44;5071035;28;20074;-78
2022/09/23 11:06:24;;;;;;;2.75;1.98;;;;;;;29.69;22.12;98515.72;5019477;28;20044;-78
2022/09/23 11:09:07;;;;;;;2.08;1.88;;;;;;;30.06;21.79;98506.22;5071571;28;20037;-78
2022/09/23 11:11:55;;;;;;;2.35;1.75;;;;;;;29.59;21.75;98503.59;5068850;28;20272;-79
2022/09/23 11:14:42;;;;;;;1.98;1.63;;;;;;;30.16;21.88;98499.34;5070322;28;20060;-78
2022/09/23 11:17:25;;;;;;;2.20;1.90;;;;;;;30.50;21.62;98498.41;5069052;28;20048;-78
2022/09/23 11:20:16;;;;;;;2.05;1.40;;;;;;;31.08;21.26;98499.16;5070130;28;20074;-78
2022/09/23 11:22:56;;;;;;;1.88;1.55;;;;;;;31.64;20.14;98495.03;5071101;28;20533;-78
2022/09/23 11:25:30;;;;;;;1.55;1.45;;;;;;;32.09;21.04;98489.28;5071200;28;20033;-79
2022/09/23 11:28:11;;;;;;;2.00;1.60;;;;;;;32.20;19.40;98489.53;5066162;28;20047;-79
2022/09/23 11:30:46;;;;;;;2.03;1.33;;;;;;;32.20;20.14;98489.53;5067792;28;20512;-79
2022/09/23 11:33:26;;;;;;;2.78;1.30;;;;;;;32.42;21.42;98495.72;5071453;28;20036;-78
2022/09/23 11:36:03;;;;;;;1.65;1.45;;;;;;;32.86;20.59;98490.28;5071909;28;20089;-78
2022/09/23 11:38:32;;;;;;;2.28;1.60;;;;;;;33.00;19.84;98480.25;5064748;28;20063;-78
2022/09/23 11:41:08;;;;;;;1.70;1.40;;;;;;;31.98;20.83;98481.25;5071680;28;20112;-78
2022/09/23 11:43:38;;;;;;;2.85;1.75;;;;;;;32.23;20.66;98470.75;5072909;28;20063;-79
2022/09/23 11:46:22;;;;;;;2.10;1.55;;;;;;;32.40;19.88;98480.44;5066945;28;20040;-79
2022/09/23 11:49:06;;;;;;;2.05;1.63;;;;;;;32.39;21.30;98464.66;5070439;28;20056;-79
2022/09/23 11:51:58;;;;;;;1.60;1.50;;;;;;;32.56;20.74;98468.66;5046983;28;20032;-79
2022/09/23 11:54:37;;;;;;;3.67;1.73;;;;;;;31.92;19.62;98471.78;5069502;28;20073;-78
2022/09/23 11:57:10;;;;;;;2.10;1.90;;;;;;;31.22;20.66;98458.00;5072289;28;20032;-78
2022/09/23 11:59:46;;;;;;;3.28;2.53;;;;;;;27.61;25.03;98478.31;5071164;28;20087;-78
2022/09/23 12:02:37;;;;;;;3.17;2.28;;;;;;;26.99;26.50;98471.25;5069082;28;20127;-78
2022/09/23 12:05:15;;;;;;;;;;;;;;;27.57;25.03;98468.38;5081203;28;20089;-78
2022/09/23 12:08:06;;;;;;;2.40;1.90;;;;;;;28.53;24.50;98450.78;5069300;28;19916;-79
2022/09/23 12:10:54;;;;;;;5.28;1.88;;;;;;;28.35;25.28;98461.09;5070947;28;20039;-78
2022/09/23 12:13:31;;;;;;;2.00;1.70;;;;;;;28.65;24.56;98455.66;5069398;28;20039;-78